Clifton, Ohio
Current Conditions -  °F | °C
As of 10:56 PM on Friday 24 Oct 2014 (Local Time) from KSGH Reporting Station
Few Clouds Few Clouds  
Wind Chill: 47°   Ceiling: Unl
Heat Index: 49°   Visibility: 8mi
Dew Point: 39°   Wind: 6mph
Humidity: 68%   Direction: 200°SSW
Pressure: 30.04"   Gusts: NA
Location:  39.8°N, 83.83°W
Report Text: KSGH 250256Z AUTO 20005KT 8SM FEW039 09/04 A3004 RMK AO2 55000 T00940038 SLP175
Loading
Personal Weather Stations






























Interactive Weather Map
Tropical Storm Tracking
New forecast layout! Learn more

10-Day Weather Forecast

Advertisements
Track Severe Weather on mobile